createdAt,value
2022-09-26T00:00:46.714Z,13.67
2022-09-26T00:01:46.704Z,13.89
2022-09-26T00:02:46.723Z,13.95
2022-09-26T00:03:46.685Z,14.09
2022-09-26T00:04:46.684Z,13.98
2022-09-26T00:05:46.659Z,14.04
2022-09-26T00:06:46.653Z,14.2
2022-09-26T00:07:46.691Z,14.28
2022-09-26T00:08:46.632Z,14.38
2022-09-26T00:09:46.619Z,14.17
2022-09-26T00:10:46.614Z,14.14
2022-09-26T00:11:46.596Z,14.12
2022-09-26T00:12:46.598Z,14.14
2022-09-26T00:13:46.588Z,14.21
2022-09-26T00:14:46.564Z,14.29
2022-09-26T00:15:46.551Z,14.25
2022-09-26T00:16:46.547Z,14.42
2022-09-26T00:17:46.552Z,14.34
2022-09-26T00:18:47.531Z,14.14
2022-09-26T00:19:46.508Z,14.29
2022-09-26T00:20:46.522Z,14.46
2022-09-26T00:21:46.499Z,14.53
2022-09-26T00:22:46.478Z,14.32
2022-09-26T00:23:46.479Z,14.28
2022-09-26T00:24:46.460Z,13.96
2022-09-26T00:25:46.463Z,13.87
2022-09-26T00:26:46.456Z,13.7
2022-09-26T00:27:46.425Z,13.69
2022-09-26T00:28:46.417Z,13.94
2022-09-26T00:29:46.408Z,14.01
2022-09-26T00:30:46.404Z,13.95
2022-09-26T00:31:46.388Z,13.98
2022-09-26T00:32:46.377Z,13.8
2022-09-26T00:33:46.365Z,13.69
2022-09-26T00:34:46.351Z,13.44
2022-09-26T00:35:46.360Z,13.41
2022-09-26T00:36:46.337Z,13.43
2022-09-26T00:37:46.323Z,13.47
2022-09-26T00:38:46.305Z,13.36
2022-09-26T00:39:46.299Z,13.21
2022-09-26T00:40:46.288Z,13.21
2022-09-26T00:41:46.275Z,13.3
2022-09-26T00:42:46.269Z,13.46
2022-09-26T00:43:46.256Z,13.2
2022-09-26T00:44:46.246Z,13.27
2022-09-26T00:45:46.231Z,13.43
2022-09-26T00:46:46.226Z,13.58
2022-09-26T00:47:46.243Z,13.71
2022-09-26T00:48:46.219Z,13.77
2022-09-26T00:49:46.189Z,14.01
2022-09-26T00:50:46.185Z,14.01
2022-09-26T00:51:46.182Z,14.07
2022-09-26T00:52:46.163Z,14.07
2022-09-26T00:53:46.148Z,13.92
2022-09-26T00:54:46.140Z,13.95
2022-09-26T00:55:46.135Z,14.04
2022-09-26T00:56:46.117Z,14.21
2022-09-26T00:57:46.104Z,14.28
2022-09-26T00:58:46.100Z,14.39
2022-09-26T00:59:46.085Z,14.65
2022-09-26T01:00:46.070Z,14.61
2022-09-26T01:01:46.064Z,14.65
2022-09-26T01:02:46.052Z,14.65
2022-09-26T01:03:46.040Z,14.65
2022-09-26T01:04:46.041Z,14.65
2022-09-26T01:05:46.037Z,14.67
2022-09-26T01:06:46.007Z,14.65
2022-09-26T01:07:45.999Z,14.65
2022-09-26T01:08:45.986Z,14.68
2022-09-26T01:09:45.978Z,14.68
2022-09-26T01:10:45.970Z,14.68
2022-09-26T01:11:45.964Z,14.68
2022-09-26T01:12:45.946Z,14.62
2022-09-26T01:13:45.936Z,14.65
2022-09-26T01:14:45.920Z,14.65
2022-09-26T01:15:45.915Z,14.72
2022-09-26T01:16:45.910Z,14.65
2022-09-26T01:17:45.904Z,14.69
2022-09-26T01:18:45.877Z,14.72
2022-09-26T01:19:45.873Z,14.64
2022-09-26T01:20:45.856Z,14.42
2022-09-26T01:21:45.850Z,14.31
2022-09-26T01:22:45.865Z,14.16
2022-09-26T01:23:45.827Z,14.01
2022-09-26T01:24:45.813Z,13.83
2022-09-26T01:25:45.806Z,13.96
2022-09-26T01:26:45.811Z,14.04
2022-09-26T01:27:45.778Z,14.13
2022-09-26T01:28:45.772Z,14.14
2022-09-26T01:29:45.761Z,14.25
2022-09-26T01:30:45.754Z,13.87
2022-09-26T01:31:45.742Z,13.62
2022-09-26T01:32:45.730Z,13.33
2022-09-26T01:33:45.754Z,13.09
2022-09-26T01:34:45.720Z,12.99
2022-09-26T01:35:45.699Z,12.79
2022-09-26T01:36:45.689Z,12.77
2022-09-26T01:37:45.671Z,12.59
2022-09-26T01:38:45.687Z,12.77
2022-09-26T01:39:45.658Z,12.75
2022-09-26T01:40:45.653Z,12.84
2022-09-26T01:41:45.627Z,12.79
2022-09-26T01:42:45.644Z,12.87
2022-09-26T01:43:45.609Z,12.78
2022-09-26T01:44:45.603Z,12.74
2022-09-26T01:45:45.600Z,12.7
2022-09-26T01:46:45.585Z,12.89
2022-09-26T01:47:45.586Z,12.88
2022-09-26T01:48:45.560Z,13.03
2022-09-26T01:49:45.562Z,12.93
2022-09-26T01:50:45.535Z,13.29
2022-09-26T01:51:45.528Z,13.54
2022-09-26T01:52:45.515Z,13.56
2022-09-26T01:53:45.507Z,13.24
2022-09-26T01:54:45.493Z,13.27
2022-09-26T01:55:45.493Z,13.46
2022-09-26T01:56:45.484Z,13.4
2022-09-26T01:57:45.465Z,13.06
2022-09-26T01:58:45.450Z,12.95
2022-09-26T01:59:45.447Z,12.96
2022-09-26T02:00:45.432Z,12.92
2022-09-26T02:01:45.425Z,12.92
2022-09-26T02:02:45.409Z,12.88
2022-09-26T02:03:45.406Z,13.04
2022-09-26T02:04:45.389Z,13.21
2022-09-26T02:05:45.394Z,13.3
2022-09-26T02:06:45.369Z,13.4
2022-09-26T02:07:45.368Z,13.37
2022-09-26T02:08:45.353Z,13.41
2022-09-26T02:09:45.334Z,13.63
2022-09-26T02:10:45.330Z,13.52
2022-09-26T02:11:45.323Z,13.46
2022-09-26T02:12:45.307Z,13.74
2022-09-26T02:13:45.297Z,13.62
2022-09-26T02:14:45.281Z,13.62
2022-09-26T02:15:45.296Z,13.8
2022-09-26T02:16:45.263Z,13.65
2022-09-26T02:17:45.254Z,13.77
2022-09-26T02:18:45.249Z,13.96
2022-09-26T02:19:45.225Z,13.89
2022-09-26T02:20:45.217Z,13.96
2022-09-26T02:21:45.209Z,13.89
2022-09-26T02:22:45.192Z,13.94
2022-09-26T02:23:45.185Z,14.07
2022-09-26T02:24:45.181Z,13.98
2022-09-26T02:25:45.171Z,13.87
2022-09-26T02:26:45.174Z,13.63
2022-09-26T02:27:45.139Z,13.65
2022-09-26T02:28:45.138Z,13.81
2022-09-26T02:29:45.124Z,13.69
2022-09-26T02:30:45.115Z,13.67
2022-09-26T02:31:45.104Z,13.63
2022-09-26T02:32:45.088Z,13.81
2022-09-26T02:33:45.075Z,13.81
2022-09-26T02:34:45.077Z,13.79
2022-09-26T02:35:45.058Z,13.76
2022-09-26T02:36:45.052Z,13.63
2022-09-26T02:37:45.048Z,13.69
2022-09-26T02:38:45.021Z,13.55
2022-09-26T02:39:45.008Z,13.54
2022-09-26T02:40:45.003Z,13.38
2022-09-26T02:41:44.994Z,13.25
2022-09-26T02:42:44.979Z,13.38
2022-09-26T02:43:44.970Z,13.52
2022-09-26T02:44:44.959Z,13.52
2022-09-26T02:45:44.951Z,13.88
2022-09-26T02:46:44.941Z,13.83
2022-09-26T02:47:44.948Z,14.07
2022-09-26T02:48:44.920Z,14.17
2022-09-26T02:49:44.908Z,14.25
2022-09-26T02:50:44.900Z,14.31
2022-09-26T02:51:44.886Z,14.39
2022-09-26T02:52:44.892Z,14.2
2022-09-26T02:53:44.866Z,14.19
2022-09-26T02:54:44.879Z,14.21
2022-09-26T02:55:44.842Z,14.28
2022-09-26T02:56:44.831Z,14.34
2022-09-26T02:57:44.817Z,14.31
2022-09-26T02:58:44.835Z,14.37
2022-09-26T02:59:44.806Z,14.39
2022-09-26T03:00:44.797Z,14.42
2022-09-26T03:01:44.788Z,14.6
2022-09-26T03:02:44.765Z,14.64
2022-09-26T03:03:44.752Z,14.61
2022-09-26T03:04:44.746Z,14.67
2022-09-26T03:05:44.738Z,14.61
2022-09-26T03:06:44.723Z,14.74
2022-09-26T03:07:44.717Z,14.71
2022-09-26T03:08:44.704Z,14.61
2022-09-26T03:09:44.694Z,14.62
2022-09-26T03:10:44.690Z,14.68
2022-09-26T03:11:44.680Z,14.9
2022-09-26T03:12:44.681Z,14.84
2022-09-26T03:13:44.648Z,14.93
2022-09-26T03:14:44.659Z,14.88
2022-09-26T03:15:44.638Z,14.91
2022-09-26T03:16:44.612Z,14.99
2022-09-26T03:17:44.604Z,15.06
2022-09-26T03:18:44.604Z,15.13
2022-09-26T03:19:44.583Z,15.19
2022-09-26T03:20:44.570Z,15.12
2022-09-26T03:21:44.561Z,14.91
2022-09-26T03:22:44.552Z,14.61
2022-09-26T03:23:44.554Z,14.68
2022-09-26T03:24:44.538Z,14.69
2022-09-26T03:25:44.522Z,14.69
2022-09-26T03:26:44.505Z,14.86
2022-09-26T03:27:44.512Z,15.09
2022-09-26T03:28:44.484Z,15.17
2022-09-26T03:29:44.478Z,15.17
2022-09-26T03:30:44.481Z,15.09
2022-09-26T03:31:44.453Z,15.05
2022-09-26T03:32:44.441Z,14.93
2022-09-26T03:33:44.432Z,15.03
2022-09-26T03:34:44.422Z,15.17
2022-09-26T03:35:44.410Z,15.21
2022-09-26T03:36:44.399Z,15.12
2022-09-26T03:37:44.387Z,15.13
2022-09-26T03:38:44.386Z,15.36
2022-09-26T03:39:44.363Z,15.35
2022-09-26T03:40:44.357Z,15.35
2022-09-26T03:41:44.346Z,15.45
2022-09-26T03:42:44.332Z,15.46
2022-09-26T03:43:44.328Z,15.46
2022-09-26T03:44:44.318Z,15.38
2022-09-26T03:45:44.299Z,15.35
2022-09-26T03:46:44.296Z,15.35
2022-09-26T03:47:44.281Z,15.41
2022-09-26T03:48:44.272Z,15.23
2022-09-26T03:49:44.300Z,15.15
2022-09-26T03:50:44.251Z,15.33
2022-09-26T03:51:44.234Z,15.42
2022-09-26T03:52:44.234Z,15.45
2022-09-26T03:53:44.230Z,15.59
2022-09-26T03:54:44.209Z,15.63
2022-09-26T03:55:44.195Z,15.63
2022-09-26T03:56:44.193Z,15.57
2022-09-26T03:57:44.184Z,15.63
2022-09-26T03:58:44.219Z,15.49
2022-09-26T03:59:44.190Z,15.43
2022-09-26T04:00:44.180Z,15.24
2022-09-26T04:01:44.144Z,15.05
2022-09-26T04:02:44.116Z,14.91
2022-09-26T04:03:44.112Z,14.95
2022-09-26T04:04:44.103Z,14.74
2022-09-26T04:05:44.086Z,14.67
2022-09-26T04:06:44.078Z,14.71
2022-09-26T04:07:44.068Z,14.83
2022-09-26T04:08:44.059Z,14.99
2022-09-26T04:09:44.045Z,14.78
2022-09-26T04:10:44.040Z,14.68
2022-09-26T04:11:44.030Z,14.87
2022-09-26T04:12:44.023Z,15.08
2022-09-26T04:13:44.012Z,15.21
2022-09-26T04:14:44.006Z,15.23
2022-09-26T04:15:43.985Z,15.35
2022-09-26T04:16:43.991Z,15.45
2022-09-26T04:17:43.962Z,15.48
2022-09-26T04:18:43.953Z,15.08
2022-09-26T04:19:43.948Z,14.98
2022-09-26T04:20:43.927Z,15.2
2022-09-26T04:21:43.922Z,15.43
2022-09-26T04:22:43.912Z,15.45
2022-09-26T04:23:43.899Z,15.41
2022-09-26T04:24:43.891Z,15.06
2022-09-26T04:25:43.876Z,15.21
2022-09-26T04:26:43.870Z,15.35
2022-09-26T04:27:43.875Z,15.48
2022-09-26T04:28:43.849Z,15.59
2022-09-26T04:29:43.835Z,15.27
2022-09-26T04:30:43.827Z,15.19
2022-09-26T04:31:43.812Z,15.05
2022-09-26T04:32:43.806Z,15.05
2022-09-26T04:33:43.791Z,15.26
2022-09-26T04:34:43.781Z,15.23
2022-09-26T04:35:43.822Z,15.33
2022-09-26T04:36:43.767Z,15.02
2022-09-26T04:37:43.755Z,15.03
2022-09-26T04:38:43.739Z,15.3
2022-09-26T04:39:43.740Z,15.46
2022-09-26T04:40:43.721Z,15.31
2022-09-26T04:41:43.706Z,15.31
2022-09-26T04:42:43.704Z,15.51
2022-09-26T04:43:43.695Z,15.67
2022-09-26T04:44:43.675Z,15.68
2022-09-26T04:45:43.669Z,15.74
2022-09-26T04:46:43.689Z,15.66
2022-09-26T04:47:43.648Z,15.64
2022-09-26T04:48:43.637Z,15.78
2022-09-26T04:49:43.656Z,15.79
2022-09-26T04:50:43.616Z,15.66
2022-09-26T04:51:43.605Z,15.76
2022-09-26T04:52:43.592Z,15.64
2022-09-26T04:53:43.579Z,15.46
2022-09-26T04:54:43.574Z,15.43
2022-09-26T04:55:43.560Z,15.39
2022-09-26T04:56:43.552Z,15.49
2022-09-26T04:57:43.540Z,15.43
2022-09-26T04:58:43.539Z,15.66
2022-09-26T04:59:43.524Z,15.56
2022-09-26T05:00:43.509Z,15.46
2022-09-26T05:01:43.513Z,15.57
2022-09-26T05:02:43.484Z,15.78
2022-09-26T05:03:43.475Z,15.68
2022-09-26T05:04:43.466Z,15.52
2022-09-26T05:05:43.460Z,15.39
2022-09-26T05:06:43.455Z,15.56
2022-09-26T05:07:43.457Z,15.42
2022-09-26T05:08:43.431Z,15.49
2022-09-26T05:09:43.433Z,15.59
2022-09-26T05:10:43.404Z,15.67
2022-09-26T05:11:43.393Z,15.54
2022-09-26T05:12:43.390Z,15.67
2022-09-26T05:13:43.378Z,15.51
2022-09-26T05:14:43.375Z,15.52
2022-09-26T05:15:43.350Z,15.51
2022-09-26T05:16:43.349Z,15.61
2022-09-26T05:17:43.353Z,15.7
2022-09-26T05:18:43.325Z,15.63
2022-09-26T05:19:43.312Z,15.46
2022-09-26T05:20:43.308Z,15.3
2022-09-26T05:21:43.302Z,15.13
2022-09-26T05:22:43.277Z,15.17
2022-09-26T05:23:43.268Z,15.28
2022-09-26T05:24:43.265Z,15.19
2022-09-26T05:25:43.246Z,15.13
2022-09-26T05:26:43.237Z,15.03
2022-09-26T05:27:43.227Z,15.11
2022-09-26T05:28:43.219Z,15.2
2022-09-26T05:29:43.218Z,15.45
2022-09-26T05:30:43.199Z,15.27
2022-09-26T05:31:43.186Z,15.24
2022-09-26T05:32:43.183Z,15.12
2022-09-26T05:33:43.165Z,15.31
2022-09-26T05:34:43.151Z,15.15
2022-09-26T05:35:43.171Z,15.15
2022-09-26T05:36:43.134Z,15.2
2022-09-26T05:37:43.127Z,15.21
2022-09-26T05:38:43.124Z,15.03
2022-09-26T05:39:43.132Z,14.87
2022-09-26T05:40:43.088Z,14.72
2022-09-26T05:41:43.080Z,14.64
2022-09-26T05:42:43.073Z,14.74
2022-09-26T05:43:43.073Z,15.03
2022-09-26T05:44:43.067Z,15.23
2022-09-26T05:45:43.047Z,14.98
2022-09-26T05:46:43.030Z,14.75
2022-09-26T05:47:43.020Z,14.75
2022-09-26T05:48:43.001Z,14.9
2022-09-26T05:49:43.000Z,14.81
2022-09-26T05:50:42.983Z,15.05
2022-09-26T05:51:42.977Z,14.65
2022-09-26T05:52:42.962Z,14.67
2022-09-26T05:53:42.957Z,14.64
2022-09-26T05:54:42.951Z,14.61
2022-09-26T05:55:42.934Z,14.67
2022-09-26T05:56:42.939Z,14.91
2022-09-26T05:57:42.915Z,14.78
2022-09-26T05:58:42.916Z,14.88
2022-09-26T05:59:42.908Z,15.19
2022-09-26T06:00:42.882Z,14.57
2022-09-26T06:01:42.873Z,14.53
2022-09-26T06:02:42.879Z,14.31
2022-09-26T06:03:42.857Z,14.29
2022-09-26T06:04:42.836Z,14.57
2022-09-26T06:05:42.825Z,14.86
2022-09-26T06:06:42.823Z,15.2
2022-09-26T06:07:42.813Z,15.21
2022-09-26T06:08:42.794Z,15.01
2022-09-26T06:09:42.783Z,14.91
2022-09-26T06:10:42.819Z,14.87
2022-09-26T06:11:42.774Z,14.57
2022-09-26T06:12:42.755Z,14.65
2022-09-26T06:13:42.741Z,14.65
2022-09-26T06:14:42.740Z,14.88
2022-09-26T06:15:42.718Z,14.84
2022-09-26T06:16:42.711Z,15.05
2022-09-26T06:17:42.695Z,14.74
2022-09-26T06:18:42.693Z,14.88
2022-09-26T06:19:42.675Z,15.11
2022-09-26T06:20:42.664Z,14.93
2022-09-26T06:21:42.697Z,14.83
2022-09-26T06:22:42.643Z,14.86
2022-09-26T06:23:42.633Z,14.67
2022-09-26T06:24:42.635Z,15.11
2022-09-26T06:25:42.612Z,15.15
2022-09-26T06:26:42.602Z,15.13
2022-09-26T06:27:42.601Z,15.3
2022-09-26T06:28:42.584Z,14.87
2022-09-26T06:29:42.568Z,15.06
2022-09-26T06:30:42.577Z,14.83
2022-09-26T06:31:42.558Z,14.86
2022-09-26T06:32:42.567Z,14.94
2022-09-26T06:33:42.600Z,14.99
2022-09-26T06:34:42.515Z,15.01
2022-09-26T06:35:42.511Z,14.87
2022-09-26T06:36:42.502Z,15.11
2022-09-26T06:37:42.499Z,14.91
2022-09-26T06:38:42.477Z,14.98
2022-09-26T06:39:42.467Z,14.93
2022-09-26T06:40:42.452Z,14.8
2022-09-26T06:41:42.446Z,14.74
2022-09-26T06:42:42.433Z,14.98
2022-09-26T06:43:42.423Z,15.13
2022-09-26T06:44:42.411Z,15.15
2022-09-26T06:45:42.399Z,15.31
2022-09-26T06:46:42.397Z,15.11
2022-09-26T06:47:42.385Z,15.2
2022-09-26T06:48:42.375Z,15.09
2022-09-26T06:49:42.365Z,15.13
2022-09-26T06:50:42.348Z,15.15
2022-09-26T06:51:42.336Z,15.05
2022-09-26T06:52:42.327Z,14.9
2022-09-26T06:53:42.330Z,14.98
2022-09-26T06:54:42.318Z,15.26
2022-09-26T06:55:42.295Z,15.49
2022-09-26T06:56:42.288Z,15.66
2022-09-26T06:57:42.271Z,15.76
2022-09-26T06:58:42.266Z,15.57
2022-09-26T06:59:42.259Z,15.35
2022-09-26T07:00:42.240Z,15.27
2022-09-26T07:01:42.246Z,15.41
2022-09-26T07:02:42.223Z,15.35
2022-09-26T07:03:42.207Z,15.2
2022-09-26T07:04:42.204Z,15.31
2022-09-26T07:05:42.338Z,15.02
2022-09-26T07:06:42.182Z,15.15
2022-09-26T07:07:42.169Z,15.23
2022-09-26T07:08:42.158Z,15.27
2022-09-26T07:09:42.146Z,15.13
2022-09-26T07:10:42.136Z,15.46
2022-09-26T07:11:42.135Z,15.15
2022-09-26T07:12:42.112Z,15.27
2022-09-26T07:13:42.104Z,15.27
2022-09-26T07:14:42.095Z,15.56
2022-09-26T07:15:42.081Z,15.75
2022-09-26T07:16:42.100Z,15.84
2022-09-26T07:17:42.072Z,15.63
2022-09-26T07:18:42.055Z,15.63
2022-09-26T07:19:42.041Z,15.97
2022-09-26T07:20:42.028Z,16.09
2022-09-26T07:21:42.027Z,16.03
2022-09-26T07:22:42.010Z,16.11
2022-09-26T07:23:41.997Z,16.2
2022-09-26T07:24:41.991Z,16.41
2022-09-26T07:25:41.976Z,16.34
2022-09-26T07:26:42.031Z,16.11
2022-09-26T07:27:41.957Z,15.88
2022-09-26T07:28:41.948Z,15.93
2022-09-26T07:29:41.934Z,15.99
2022-09-26T07:30:41.925Z,16.27
2022-09-26T07:31:41.931Z,16.48
2022-09-26T07:32:41.899Z,16.34
2022-09-26T07:33:41.887Z,16.25
2022-09-26T07:34:41.877Z,16.04
2022-09-26T07:35:41.931Z,16.04
2022-09-26T07:36:41.854Z,15.59
2022-09-26T07:37:41.847Z,15.42
2022-09-26T07:38:41.844Z,15.45
2022-09-26T07:39:41.821Z,15.61
2022-09-26T07:40:41.818Z,15.85
2022-09-26T07:41:41.802Z,15.84
2022-09-26T07:42:41.806Z,16.23
2022-09-26T07:43:41.781Z,16.35
2022-09-26T07:44:41.778Z,15.84
2022-09-26T07:45:41.770Z,15.49
2022-09-26T07:46:41.759Z,15.45
2022-09-26T07:47:41.737Z,15.68
2022-09-26T07:48:41.732Z,15.68
2022-09-26T07:49:41.719Z,15.75
2022-09-26T07:50:41.703Z,15.57
2022-09-26T07:51:41.699Z,15.59
2022-09-26T07:52:41.699Z,15.57
2022-09-26T07:53:41.671Z,15.56
2022-09-26T07:54:41.665Z,15.88
2022-09-26T07:55:41.654Z,15.82
2022-09-26T07:56:41.639Z,15.99
2022-09-26T07:57:41.648Z,15.96
2022-09-26T07:58:41.625Z,15.82
2022-09-26T07:59:41.608Z,15.84
2022-09-26T08:00:41.609Z,15.88
2022-09-26T08:01:41.591Z,16.2
2022-09-26T08:02:41.583Z,16.44
2022-09-26T08:03:41.572Z,16.62
2022-09-26T08:04:41.599Z,16.52
2022-09-26T08:05:41.546Z,16.62
2022-09-26T08:06:41.540Z,16.01
2022-09-26T08:07:41.532Z,15.94
2022-09-26T08:08:41.521Z,16.26
2022-09-26T08:09:41.504Z,16.2
2022-09-26T08:10:41.499Z,16.25
2022-09-26T08:11:41.482Z,16.77
2022-09-26T08:12:41.477Z,16.59
2022-09-26T08:13:41.465Z,16.35
2022-09-26T08:14:41.455Z,15.99
2022-09-26T08:15:41.444Z,15.94
2022-09-26T08:16:41.448Z,16.42
2022-09-26T08:17:41.424Z,16.8
2022-09-26T08:18:41.412Z,16.63
2022-09-26T08:19:41.412Z,16.5
2022-09-26T08:20:41.390Z,16.25
2022-09-26T08:21:41.398Z,16.26
2022-09-26T08:22:41.371Z,16.41
2022-09-26T08:23:41.359Z,16.56
2022-09-26T08:24:41.357Z,16.85
2022-09-26T08:25:41.343Z,16.81
2022-09-26T08:26:41.376Z,16.75
2022-09-26T08:27:41.321Z,16.77
2022-09-26T08:28:41.357Z,16.78
2022-09-26T08:29:41.309Z,16.71
2022-09-26T08:30:41.286Z,16.68
2022-09-26T08:31:41.277Z,16.93
2022-09-26T08:32:41.287Z,17.17
2022-09-26T08:33:41.261Z,16.83
2022-09-26T08:34:41.250Z,17.04
2022-09-26T08:35:41.236Z,17.22
2022-09-26T08:36:41.225Z,17.47
2022-09-26T08:37:41.221Z,17.64
2022-09-26T08:38:41.212Z,17.11
2022-09-26T08:39:41.222Z,17.15
2022-09-26T08:40:41.207Z,17.5
2022-09-26T08:41:41.175Z,17.2
2022-09-26T08:42:41.169Z,17.23
2022-09-26T08:43:41.153Z,17.25
2022-09-26T08:44:41.148Z,17.4
2022-09-26T08:45:41.181Z,17.03
2022-09-26T08:46:41.123Z,17.14
2022-09-26T08:47:41.128Z,17.04
2022-09-26T08:48:41.104Z,16.92
2022-09-26T08:49:41.094Z,16.98
2022-09-26T08:50:41.085Z,17.15
2022-09-26T08:51:41.077Z,17.13
2022-09-26T08:52:41.063Z,17.36
2022-09-26T08:53:41.050Z,17.11
2022-09-26T08:54:41.045Z,16.9
2022-09-26T08:55:41.034Z,16.93
2022-09-26T08:56:41.020Z,16.93
2022-09-26T08:57:41.009Z,16.85
2022-09-26T08:58:40.997Z,16.96
2022-09-26T08:59:40.991Z,17.32
2022-09-26T09:00:40.981Z,17.63
2022-09-26T09:01:40.980Z,18
2022-09-26T09:02:40.970Z,17.84
2022-09-26T09:03:40.949Z,17.55
2022-09-26T09:04:40.937Z,17.41
2022-09-26T09:05:40.932Z,17.36
2022-09-26T09:06:40.919Z,16.99
2022-09-26T09:07:40.903Z,17.28
2022-09-26T09:08:40.896Z,17.53
2022-09-26T09:09:40.898Z,17.57
2022-09-26T09:10:40.920Z,17.63
2022-09-26T09:11:40.859Z,17.66
2022-09-26T09:12:40.855Z,17.3
2022-09-26T09:13:40.842Z,17.53
2022-09-26T09:14:40.832Z,17.59
2022-09-26T09:15:40.826Z,17.81
2022-09-26T09:16:40.811Z,17.43
2022-09-26T09:17:40.814Z,17.59
2022-09-26T09:18:40.794Z,17.17
2022-09-26T09:19:40.798Z,17.18
2022-09-26T09:20:40.778Z,16.93
2022-09-26T09:21:40.767Z,16.89
2022-09-26T09:22:40.837Z,17.23
2022-09-26T09:23:41.738Z,17.23
2022-09-26T09:24:40.743Z,17.15
2022-09-26T09:25:40.745Z,17.06
2022-09-26T09:27:40.692Z,17.79
2022-09-26T09:28:40.687Z,18.03
2022-09-26T09:29:40.705Z,18.19
2022-09-26T09:30:40.662Z,18.03
2022-09-26T09:31:40.667Z,17.76
2022-09-26T09:32:40.670Z,17.66
2022-09-26T09:33:40.636Z,17.87
2022-09-26T09:34:40.635Z,17.76
2022-09-26T09:35:40.619Z,17.78
2022-09-26T09:36:40.595Z,18.21
2022-09-26T09:37:41.431Z,18.19
2022-09-26T09:38:40.612Z,18.06
2022-09-26T09:39:40.564Z,18.06
2022-09-26T09:40:40.559Z,18
2022-09-26T09:41:40.550Z,18.04
2022-09-26T09:42:40.537Z,17.79
2022-09-26T09:43:40.527Z,17.74
2022-09-26T09:44:40.515Z,17.63
2022-09-26T09:45:40.505Z,17.67
2022-09-26T09:46:40.493Z,17.89
2022-09-26T09:47:40.479Z,17.92
2022-09-26T09:48:40.484Z,18.06
2022-09-26T09:49:40.471Z,17.41
2022-09-26T09:50:40.447Z,17.79
2022-09-26T09:51:40.470Z,17.47
2022-09-26T09:52:40.431Z,17.38
2022-09-26T09:53:40.482Z,17.55
2022-09-26T09:54:40.415Z,17.7
2022-09-26T09:55:40.432Z,17.84
2022-09-26T09:56:40.428Z,18.02
2022-09-26T09:57:40.466Z,17.63
2022-09-26T09:58:40.427Z,17.74
2022-09-26T09:59:40.355Z,17.59
2022-09-26T10:00:40.351Z,17.57
2022-09-26T10:01:40.357Z,17.95
2022-09-26T10:02:40.348Z,17.99
2022-09-26T10:03:40.311Z,17.88
2022-09-26T10:04:40.298Z,17.88
2022-09-26T10:05:40.290Z,17.97
2022-09-26T10:06:40.282Z,18.09
2022-09-26T10:07:40.272Z,17.81
2022-09-26T10:08:40.265Z,17.54
2022-09-26T10:09:40.298Z,17.4
2022-09-26T10:10:40.269Z,17.76
2022-09-26T10:11:40.229Z,17.53
2022-09-26T10:12:40.215Z,17.15
2022-09-26T10:13:40.206Z,17.23
2022-09-26T10:14:40.201Z,17.15
2022-09-26T10:15:40.192Z,17.2
2022-09-26T10:16:40.174Z,17.03
2022-09-26T10:17:40.200Z,17.07
2022-09-26T10:18:40.157Z,17.06
2022-09-26T10:19:40.161Z,17.04
2022-09-26T10:20:40.131Z,17.35
2022-09-26T10:21:40.121Z,17.41
2022-09-26T10:22:40.112Z,17.18
2022-09-26T10:23:40.102Z,17.3
2022-09-26T10:24:40.092Z,17.33
2022-09-26T10:25:40.088Z,17.13
2022-09-26T10:26:40.120Z,17.13
2022-09-26T10:27:40.147Z,17.13
2022-09-26T10:28:40.065Z,17.41
2022-09-26T10:29:40.040Z,17.13
2022-09-26T10:30:40.039Z,17.18
2022-09-26T10:31:40.031Z,17.57
2022-09-26T10:32:40.012Z,17.53
2022-09-26T10:33:40.009Z,17.51
2022-09-26T10:34:40.076Z,17.4
2022-09-26T10:35:39.989Z,17.54
2022-09-26T10:36:39.992Z,17.55
2022-09-26T10:37:39.962Z,17.04
2022-09-26T10:38:39.990Z,16.73
2022-09-26T10:39:39.981Z,16.9
2022-09-26T10:40:40.019Z,16.63
2022-09-26T10:41:39.930Z,16.37
2022-09-26T10:42:39.917Z,16.74
2022-09-26T10:43:39.903Z,16.67
2022-09-26T10:44:39.883Z,16.42
2022-09-26T10:45:39.908Z,16.48
2022-09-26T10:46:39.862Z,16.44
2022-09-26T10:47:39.856Z,16.58
2022-09-26T10:48:39.845Z,16.49
2022-09-26T10:49:39.871Z,16.48
2022-09-26T10:50:39.825Z,16.35
2022-09-26T10:51:39.812Z,16.49
2022-09-26T10:52:39.800Z,16.65
2022-09-26T10:53:39.795Z,16.68
2022-09-26T10:54:39.826Z,16.77
2022-09-26T10:55:39.779Z,16.5
2022-09-26T10:56:39.764Z,16.34
2022-09-26T10:57:39.753Z,16.23
2022-09-26T10:58:39.753Z,16.37
2022-09-26T10:59:39.877Z,16.12
2022-09-26T11:00:39.734Z,16.45
2022-09-26T11:01:39.713Z,16.34
2022-09-26T11:02:39.702Z,16.25
2022-09-26T11:03:39.690Z,16.52
2022-09-26T11:04:39.676Z,16.15
2022-09-26T11:05:39.666Z,16.11
2022-09-26T11:06:39.654Z,16.26
2022-09-26T11:07:39.678Z,16.44
2022-09-26T11:08:39.636Z,16.42
2022-09-26T11:09:39.627Z,16.22
2022-09-26T11:10:39.616Z,16.01
2022-09-26T11:11:39.613Z,16.27
2022-09-26T11:12:39.601Z,16.44
2022-09-26T11:13:39.605Z,16.35
2022-09-26T11:14:39.577Z,16.55
2022-09-26T11:15:39.560Z,16.74
2022-09-26T11:16:39.549Z,16.65
2022-09-26T11:17:39.539Z,16.44
2022-09-26T11:18:39.595Z,16.06
2022-09-26T11:19:39.520Z,16.01
2022-09-26T11:20:39.515Z,15.93
2022-09-26T11:21:39.493Z,15.94
2022-09-26T11:22:39.497Z,15.78
2022-09-26T11:23:39.479Z,15.76
2022-09-26T11:24:39.461Z,15.81
2022-09-26T11:25:39.455Z,15.93
2022-09-26T11:26:39.456Z,16.06
2022-09-26T11:27:39.429Z,16.07
2022-09-26T11:28:39.420Z,16.26
2022-09-26T11:29:39.411Z,16.25
2022-09-26T11:30:39.403Z,16.23
2022-09-26T11:31:39.402Z,16.16
2022-09-26T11:32:39.400Z,16.2
2022-09-26T11:33:39.371Z,16.18
2022-09-26T11:34:39.390Z,16.49
2022-09-26T11:35:39.346Z,16.42
2022-09-26T11:36:39.337Z,16.14
2022-09-26T11:37:39.338Z,16.01
2022-09-26T11:38:39.315Z,15.78
2022-09-26T11:39:39.305Z,15.76
2022-09-26T11:40:39.294Z,15.89
2022-09-26T11:41:39.286Z,15.89
2022-09-26T11:42:39.274Z,15.93
2022-09-26T11:43:39.271Z,15.81
2022-09-26T11:44:39.248Z,15.82
2022-09-26T11:45:39.245Z,15.82
2022-09-26T11:46:39.238Z,15.75
2022-09-26T11:47:39.217Z,15.94
2022-09-26T11:48:39.210Z,15.99
2022-09-26T11:49:39.214Z,15.78
2022-09-26T11:50:39.200Z,15.61
2022-09-26T11:51:39.186Z,15.42
2022-09-26T11:52:39.208Z,15.7
2022-09-26T11:53:39.161Z,15.67
2022-09-26T11:54:39.152Z,15.57
2022-09-26T11:55:39.129Z,15.72
2022-09-26T11:56:39.132Z,15.74
2022-09-26T11:57:39.131Z,15.84
2022-09-26T11:58:39.098Z,15.78
2022-09-26T11:59:39.087Z,15.68
2022-09-26T12:00:39.074Z,15.86
2022-09-26T12:01:39.099Z,16.03
2022-09-26T12:02:39.066Z,16.14
2022-09-26T12:03:39.046Z,16.11
2022-09-26T12:04:39.040Z,15.94
2022-09-26T12:05:39.027Z,15.82
2022-09-26T12:06:39.011Z,15.75
2022-09-26T12:07:38.998Z,16.2
2022-09-26T12:08:38.998Z,16.37
2022-09-26T12:09:38.980Z,16.7
2022-09-26T12:10:38.976Z,16.78
2022-09-26T12:11:38.957Z,16.8
2022-09-26T12:12:38.950Z,16.92
2022-09-26T12:13:38.938Z,17.07
2022-09-26T12:14:38.926Z,17.26
2022-09-26T12:15:38.921Z,17.32
2022-09-26T12:16:38.910Z,17.04
2022-09-26T12:17:38.894Z,16.85
2022-09-26T12:18:38.888Z,16.09
2022-09-26T12:19:38.876Z,15.92
2022-09-26T12:20:38.864Z,16.11
2022-09-26T12:21:38.859Z,16.26
2022-09-26T12:22:38.840Z,16.4
2022-09-26T12:23:38.837Z,16.31
2022-09-26T12:24:38.820Z,16.23
2022-09-26T12:25:38.809Z,16.22
2022-09-26T12:26:38.798Z,16
2022-09-26T12:27:38.794Z,15.84
2022-09-26T12:28:38.848Z,15.86
2022-09-26T12:29:39.764Z,15.75
2022-09-26T12:30:38.758Z,15.97
2022-09-26T12:31:38.819Z,15.82
2022-09-26T12:32:39.733Z,15.59
2022-09-26T12:33:38.722Z,15.63
2022-09-26T12:34:38.716Z,15.81
2022-09-26T12:35:38.708Z,15.57
2022-09-26T12:36:38.696Z,15.57
2022-09-26T12:37:38.689Z,15.72
2022-09-26T12:38:38.676Z,15.76
2022-09-26T12:39:38.663Z,15.88
2022-09-26T12:40:38.654Z,15.82
2022-09-26T12:41:38.671Z,15.85
2022-09-26T12:42:38.633Z,15.88
2022-09-26T12:43:38.633Z,16.01
2022-09-26T12:44:38.609Z,15.76
2022-09-26T12:45:38.606Z,15.64
2022-09-26T12:46:38.588Z,15.6
2022-09-26T12:47:38.588Z,15.89
2022-09-26T12:48:38.574Z,15.61
2022-09-26T12:49:38.556Z,15.78
2022-09-26T12:50:38.548Z,15.79
2022-09-26T12:51:38.539Z,15.89
2022-09-26T12:52:38.523Z,15.82
2022-09-26T12:53:38.518Z,15.88
2022-09-26T12:54:38.502Z,15.94
2022-09-26T12:55:38.511Z,15.82